South Chaplin, Connecticut
Current Conditions -  °F | °C
As of 7:27 PM on Sunday 21 Dec 2014 (Local Time) from KIJD Reporting Station
Light Snow Light Snow  
Wind Chill: 30°   Ceiling: 1300
Heat Index: 34°   Visibility: 7mi
Dew Point: 30°   Wind: 5mph
Humidity: 85%   Direction: 10°N
Pressure: 30.34"   Gusts: NA
Location:  41.7601°N, 72.123°W
Report Text: KIJD 220027Z AUTO 01004KT 7SM -SN BKN013 OVC035 01/M01 A3034 RMK AO2 SNB2359 P0000 T00111011
Loading
Personal Weather Stations






























Interactive Weather Map New forecast layout! Learn more

10-Day Weather Forecast

Advertisements
Track Severe Weather on mobile